sensor_id;sensor_type;location;lat;lon;timestamp;temperature;humidity
46217;DHT22;47258;59.424;13.482;2022-11-14T00:02:02;9.30;99.90
46217;DHT22;47258;59.424;13.482;2022-11-14T00:04:29;9.30;99.90
46217;DHT22;47258;59.424;13.482;2022-11-14T00:06:58;9.30;99.90
46217;DHT22;47258;59.424;13.482;2022-11-14T00:09:25;9.30;99.90
46217;DHT22;47258;59.424;13.482;2022-11-14T00:11:53;9.30;99.90
46217;DHT22;47258;59.424;13.482;2022-11-14T00:14:20;9.30;99.90
46217;DHT22;47258;59.424;13.482;2022-11-14T00:16:47;9.30;99.90
46217;DHT22;47258;59.424;13.482;2022-11-14T00:19:14;9.30;99.90
46217;DHT22;47258;59.424;13.482;2022-11-14T00:21:41;9.30;99.90
46217;DHT22;47258;59.424;13.482;2022-11-14T00:24:09;9.30;99.90
46217;DHT22;47258;59.424;13.482;2022-11-14T00:26:36;9.30;99.90
46217;DHT22;47258;59.424;13.482;2022-11-14T00:29:03;9.30;99.90
46217;DHT22;47258;59.424;13.482;2022-11-14T00:31:30;9.30;99.90
46217;DHT22;47258;59.424;13.482;2022-11-14T00:33:57;9.30;99.90
46217;DHT22;47258;59.424;13.482;2022-11-14T00:36:24;9.30;99.90
46217;DHT22;47258;59.424;13.482;2022-11-14T00:38:52;9.30;99.90
46217;DHT22;47258;59.424;13.482;2022-11-14T00:41:21;9.40;99.90
46217;DHT22;47258;59.424;13.482;2022-11-14T00:43:48;9.40;99.90
46217;DHT22;47258;59.424;13.482;2022-11-14T00:46:15;9.40;99.90
46217;DHT22;47258;59.424;13.482;2022-11-14T00:48:42;9.40;99.90
46217;DHT22;47258;59.424;13.482;2022-11-14T00:51:10;9.40;99.90
46217;DHT22;47258;59.424;13.482;2022-11-14T00:53:37;9.40;99.90
46217;DHT22;47258;59.424;13.482;2022-11-14T00:56:04;9.40;99.90
46217;DHT22;47258;59.424;13.482;2022-11-14T00:58:32;9.40;99.90
46217;DHT22;47258;59.424;13.482;2022-11-14T01:00:59;9.50;99.90
46217;DHT22;47258;59.424;13.482;2022-11-14T01:03:26;9.50;99.90
46217;DHT22;47258;59.424;13.482;2022-11-14T01:05:53;9.50;99.90
46217;DHT22;47258;59.424;13.482;2022-11-14T01:08:20;9.50;99.90
46217;DHT22;47258;59.424;13.482;2022-11-14T01:10:49;9.50;99.90
46217;DHT22;47258;59.424;13.482;2022-11-14T01:13:17;9.60;99.90
46217;DHT22;47258;59.424;13.482;2022-11-14T01:15:47;9.60;99.90
46217;DHT22;47258;59.424;13.482;2022-11-14T01:18:14;9.60;99.90
46217;DHT22;47258;59.424;13.482;2022-11-14T01:20:43;9.60;99.90
46217;DHT22;47258;59.424;13.482;2022-11-14T01:23:12;9.60;99.90
46217;DHT22;47258;59.424;13.482;2022-11-14T01:25:41;9.60;99.90
46217;DHT22;47258;59.424;13.482;2022-11-14T01:28:10;9.60;99.90
46217;DHT22;47258;59.424;13.482;2022-11-14T01:30:37;9.60;99.90
46217;DHT22;47258;59.424;13.482;2022-11-14T01:33:06;9.60;99.90
46217;DHT22;47258;59.424;13.482;2022-11-14T01:35:34;9.60;99.90
46217;DHT22;47258;59.424;13.482;2022-11-14T01:38:03;9.60;99.90
46217;DHT22;47258;59.424;13.482;2022-11-14T01:40:30;9.60;99.90
46217;DHT22;47258;59.424;13.482;2022-11-14T01:43:21;9.60;99.90
46217;DHT22;47258;59.424;13.482;2022-11-14T01:45:55;9.70;99.90
46217;DHT22;47258;59.424;13.482;2022-11-14T01:48:27;9.70;99.90
46217;DHT22;47258;59.424;13.482;2022-11-14T01:50:58;9.70;99.90
46217;DHT22;47258;59.424;13.482;2022-11-14T01:53:26;9.70;99.90
46217;DHT22;47258;59.424;13.482;2022-11-14T01:55:56;9.70;99.90
46217;DHT22;47258;59.424;13.482;2022-11-14T01:58:24;9.70;99.90
46217;DHT22;47258;59.424;13.482;2022-11-14T02:00:51;9.70;99.90
46217;DHT22;47258;59.424;13.482;2022-11-14T02:03:19;9.80;99.90
46217;DHT22;47258;59.424;13.482;2022-11-14T02:05:48;9.80;99.90
46217;DHT22;47258;59.424;13.482;2022-11-14T02:08:16;9.80;99.90
46217;DHT22;47258;59.424;13.482;2022-11-14T02:10:43;9.80;99.90
46217;DHT22;47258;59.424;13.482;2022-11-14T02:13:10;9.80;99.90
46217;DHT22;47258;59.424;13.482;2022-11-14T02:15:37;9.80;99.90
46217;DHT22;47258;59.424;13.482;2022-11-14T02:18:05;9.80;99.90
46217;DHT22;47258;59.424;13.482;2022-11-14T02:20:36;9.80;99.90
46217;DHT22;47258;59.424;13.482;2022-11-14T02:23:08;9.80;99.90
46217;DHT22;47258;59.424;13.482;2022-11-14T02:25:36;9.80;99.90
46217;DHT22;47258;59.424;13.482;2022-11-14T02:28:04;9.80;99.90
46217;DHT22;47258;59.424;13.482;2022-11-14T02:30:31;9.80;99.90
46217;DHT22;47258;59.424;13.482;2022-11-14T02:32:58;9.80;99.90
46217;DHT22;47258;59.424;13.482;2022-11-14T02:35:25;9.80;99.90
46217;DHT22;47258;59.424;13.482;2022-11-14T02:37:53;9.80;99.90
46217;DHT22;47258;59.424;13.482;2022-11-14T02:40:20;9.90;99.90
46217;DHT22;47258;59.424;13.482;2022-11-14T02:42:47;9.90;99.90
46217;DHT22;47258;59.424;13.482;2022-11-14T02:45:14;9.80;99.90
46217;DHT22;47258;59.424;13.482;2022-11-14T02:47:41;9.80;99.90
46217;DHT22;47258;59.424;13.482;2022-11-14T02:50:08;9.80;99.90
46217;DHT22;47258;59.424;13.482;2022-11-14T02:52:35;9.80;99.90
46217;DHT22;47258;59.424;13.482;2022-11-14T02:55:05;9.80;99.90
46217;DHT22;47258;59.424;13.482;2022-11-14T02:57:32;9.80;99.90
46217;DHT22;47258;59.424;13.482;2022-11-14T02:59:58;9.90;99.90
46217;DHT22;47258;59.424;13.482;2022-11-14T03:02:25;9.90;99.90
46217;DHT22;47258;59.424;13.482;2022-11-14T03:04:53;9.90;99.90
46217;DHT22;47258;59.424;13.482;2022-11-14T03:07:19;9.90;99.90
46217;DHT22;47258;59.424;13.482;2022-11-14T03:09:46;9.80;99.90
46217;DHT22;47258;59.424;13.482;2022-11-14T03:12:16;9.80;99.90
46217;DHT22;47258;59.424;13.482;2022-11-14T03:14:43;9.80;99.90
46217;DHT22;47258;59.424;13.482;2022-11-14T03:17:11;9.70;99.90
46217;DHT22;47258;59.424;13.482;2022-11-14T03:19:38;9.70;99.90
46217;DHT22;47258;59.424;13.482;2022-11-14T03:22:05;9.70;99.90
46217;DHT22;47258;59.424;13.482;2022-11-14T03:24:32;9.70;99.90
46217;DHT22;47258;59.424;13.482;2022-11-14T03:26:58;9.70;99.90
46217;DHT22;47258;59.424;13.482;2022-11-14T03:29:27;9.70;99.90
46217;DHT22;47258;59.424;13.482;2022-11-14T03:31:54;9.80;99.90
46217;DHT22;47258;59.424;13.482;2022-11-14T03:34:21;9.70;99.90
46217;DHT22;47258;59.424;13.482;2022-11-14T03:36:47;9.70;99.90
46217;DHT22;47258;59.424;13.482;2022-11-14T03:39:14;9.70;99.90
46217;DHT22;47258;59.424;13.482;2022-11-14T03:41:41;9.70;99.90
46217;DHT22;47258;59.424;13.482;2022-11-14T03:44:08;9.60;99.90
46217;DHT22;47258;59.424;13.482;2022-11-14T03:46:37;9.60;99.90
46217;DHT22;47258;59.424;13.482;2022-11-14T03:49:04;9.60;99.90
46217;DHT22;47258;59.424;13.482;2022-11-14T03:51:31;9.60;99.90
46217;DHT22;47258;59.424;13.482;2022-11-14T03:53:58;9.60;99.90
46217;DHT22;47258;59.424;13.482;2022-11-14T03:56:24;9.60;99.90
46217;DHT22;47258;59.424;13.482;2022-11-14T03:58:51;9.60;99.90
46217;DHT22;47258;59.424;13.482;2022-11-14T04:01:18;9.60;99.90
46217;DHT22;47258;59.424;13.482;2022-11-14T04:03:47;9.60;99.90
46217;DHT22;47258;59.424;13.482;2022-11-14T04:06:14;9.60;99.90
46217;DHT22;47258;59.424;13.482;2022-11-14T04:08:40;9.60;99.90
46217;DHT22;47258;59.424;13.482;2022-11-14T04:11:07;9.60;99.90
46217;DHT22;47258;59.424;13.482;2022-11-14T04:13:34;9.60;99.90
46217;DHT22;47258;59.424;13.482;2022-11-14T04:16:01;9.60;99.90
46217;DHT22;47258;59.424;13.482;2022-11-14T04:18:29;9.60;99.90
46217;DHT22;47258;59.424;13.482;2022-11-14T04:20:57;9.60;99.90
46217;DHT22;47258;59.424;13.482;2022-11-14T04:23:24;9.60;99.90
46217;DHT22;47258;59.424;13.482;2022-11-14T04:25:51;9.60;99.90
46217;DHT22;47258;59.424;13.482;2022-11-14T04:28:18;9.60;99.90
46217;DHT22;47258;59.424;13.482;2022-11-14T04:30:45;9.60;99.90
46217;DHT22;47258;59.424;13.482;2022-11-14T04:33:12;9.60;99.90
46217;DHT22;47258;59.424;13.482;2022-11-14T04:35:38;9.60;99.90
46217;DHT22;47258;59.424;13.482;2022-11-14T04:38:08;9.60;99.90
46217;DHT22;47258;59.424;13.482;2022-11-14T04:40:34;9.60;99.90
46217;DHT22;47258;59.424;13.482;2022-11-14T04:43:01;9.60;99.90
46217;DHT22;47258;59.424;13.482;2022-11-14T04:45:28;9.60;99.90
46217;DHT22;47258;59.424;13.482;2022-11-14T04:47:55;9.60;99.90
46217;DHT22;47258;59.424;13.482;2022-11-14T04:50:22;9.60;99.90
46217;DHT22;47258;59.424;13.482;2022-11-14T04:52:50;9.60;99.90
46217;DHT22;47258;59.424;13.482;2022-11-14T04:55:19;9.60;99.90
46217;DHT22;47258;59.424;13.482;2022-11-14T04:57:46;9.60;99.90
46217;DHT22;47258;59.424;13.482;2022-11-14T05:00:14;9.70;99.90
46217;DHT22;47258;59.424;13.482;2022-11-14T05:02:41;9.70;99.90
46217;DHT22;47258;59.424;13.482;2022-11-14T05:05:08;9.70;99.90
46217;DHT22;47258;59.424;13.482;2022-11-14T05:07:35;9.70;99.90
46217;DHT22;47258;59.424;13.482;2022-11-14T05:10:02;9.70;99.90
46217;DHT22;47258;59.424;13.482;2022-11-14T05:12:31;9.80;99.90
46217;DHT22;47258;59.424;13.482;2022-11-14T05:14:58;9.70;99.90
46217;DHT22;47258;59.424;13.482;2022-11-14T05:17:24;9.70;99.90
46217;DHT22;47258;59.424;13.482;2022-11-14T05:19:51;9.70;99.90
46217;DHT22;47258;59.424;13.482;2022-11-14T05:22:18;9.70;99.90
46217;DHT22;47258;59.424;13.482;2022-11-14T05:24:45;9.70;99.90
46217;DHT22;47258;59.424;13.482;2022-11-14T05:27:12;9.70;99.90
46217;DHT22;47258;59.424;13.482;2022-11-14T05:29:40;9.70;99.90
46217;DHT22;47258;59.424;13.482;2022-11-14T05:32:07;9.70;99.90
46217;DHT22;47258;59.424;13.482;2022-11-14T05:34:34;9.70;99.90
46217;DHT22;47258;59.424;13.482;2022-11-14T05:37:01;9.70;99.90
46217;DHT22;47258;59.424;13.482;2022-11-14T05:39:28;9.70;99.90
46217;DHT22;47258;59.424;13.482;2022-11-14T05:41:55;9.60;99.90
46217;DHT22;47258;59.424;13.482;2022-11-14T05:44:22;9.60;99.90
46217;DHT22;47258;59.424;13.482;2022-11-14T05:46:51;9.60;99.90
46217;DHT22;47258;59.424;13.482;2022-11-14T05:49:17;9.60;99.90
46217;DHT22;47258;59.424;13.482;2022-11-14T05:51:44;9.60;99.90
46217;DHT22;47258;59.424;13.482;2022-11-14T05:54:11;9.60;99.90
46217;DHT22;47258;59.424;13.482;2022-11-14T05:56:38;9.60;99.90
46217;DHT22;47258;59.424;13.482;2022-11-14T05:59:05;9.60;99.90
46217;DHT22;47258;59.424;13.482;2022-11-14T06:01:32;9.60;99.90
46217;DHT22;47258;59.424;13.482;2022-11-14T06:04:00;9.60;99.90
46217;DHT22;47258;59.424;13.482;2022-11-14T06:06:31;9.50;99.90
46217;DHT22;47258;59.424;13.482;2022-11-14T06:08:58;9.60;99.90
46217;DHT22;47258;59.424;13.482;2022-11-14T06:11:24;9.50;99.90
46217;DHT22;47258;59.424;13.482;2022-11-14T06:13:51;9.50;99.90
46217;DHT22;47258;59.424;13.482;2022-11-14T06:16:19;9.60;99.90
46217;DHT22;47258;59.424;13.482;2022-11-14T06:18:46;9.60;99.90
46217;DHT22;47258;59.424;13.482;2022-11-14T06:21:16;9.60;99.90
46217;DHT22;47258;59.424;13.482;2022-11-14T06:23:43;9.60;99.90
46217;DHT22;47258;59.424;13.482;2022-11-14T06:26:17;9.60;99.90
46217;DHT22;47258;59.424;13.482;2022-11-14T06:28:46;9.60;99.90
46217;DHT22;47258;59.424;13.482;2022-11-14T06:31:14;9.60;99.90
46217;DHT22;47258;59.424;13.482;2022-11-14T06:33:41;9.60;99.90
46217;DHT22;47258;59.424;13.482;2022-11-14T06:36:09;9.60;99.90
46217;DHT22;47258;59.424;13.482;2022-11-14T06:38:39;9.60;99.90
46217;DHT22;47258;59.424;13.482;2022-11-14T06:41:08;9.50;99.90
46217;DHT22;47258;59.424;13.482;2022-11-14T06:43:36;9.50;99.90
46217;DHT22;47258;59.424;13.482;2022-11-14T06:46:04;9.50;99.90
46217;DHT22;47258;59.424;13.482;2022-11-14T06:48:31;9.50;99.90
46217;DHT22;47258;59.424;13.482;2022-11-14T06:50:59;9.50;99.90
46217;DHT22;47258;59.424;13.482;2022-11-14T06:53:28;9.50;99.90
46217;DHT22;47258;59.424;13.482;2022-11-14T06:55:58;9.60;99.90
46217;DHT22;47258;59.424;13.482;2022-11-14T06:58:26;9.60;99.90
46217;DHT22;47258;59.424;13.482;2022-11-14T07:00:53;9.60;99.90
46217;DHT22;47258;59.424;13.482;2022-11-14T07:03:20;9.60;99.90
46217;DHT22;47258;59.424;13.482;2022-11-14T07:05:48;9.50;99.90
46217;DHT22;47258;59.424;13.482;2022-11-14T07:08:15;9.50;99.90
46217;DHT22;47258;59.424;13.482;2022-11-14T07:10:41;9.40;99.90
46217;DHT22;47258;59.424;13.482;2022-11-14T07:13:10;9.40;99.90
46217;DHT22;47258;59.424;13.482;2022-11-14T07:15:37;9.40;99.90
46217;DHT22;47258;59.424;13.482;2022-11-14T07:18:04;9.40;99.90
46217;DHT22;47258;59.424;13.482;2022-11-14T07:20:31;9.40;99.90
46217;DHT22;47258;59.424;13.482;2022-11-14T07:22:58;9.40;99.90
46217;DHT22;47258;59.424;13.482;2022-11-14T07:25:25;9.40;99.90
46217;DHT22;47258;59.424;13.482;2022-11-14T07:27:52;9.40;99.90
46217;DHT22;47258;59.424;13.482;2022-11-14T07:30:20;9.40;99.90
46217;DHT22;47258;59.424;13.482;2022-11-14T07:32:54;9.50;99.90
46217;DHT22;47258;59.424;13.482;2022-11-14T07:35:24;9.50;99.90
46217;DHT22;47258;59.424;13.482;2022-11-14T07:37:51;9.50;99.90
46217;DHT22;47258;59.424;13.482;2022-11-14T07:40:18;9.50;99.90
46217;DHT22;47258;59.424;13.482;2022-11-14T07:42:45;9.50;99.90
46217;DHT22;47258;59.424;13.482;2022-11-14T07:45:16;9.50;99.90
46217;DHT22;47258;59.424;13.482;2022-11-14T07:47:45;9.50;99.90
46217;DHT22;47258;59.424;13.482;2022-11-14T07:50:12;9.50;99.90
46217;DHT22;47258;59.424;13.482;2022-11-14T07:52:39;9.50;99.90
46217;DHT22;47258;59.424;13.482;2022-11-14T07:55:07;9.50;99.90
46217;DHT22;47258;59.424;13.482;2022-11-14T07:57:34;9.50;99.90
46217;DHT22;47258;59.424;13.482;2022-11-14T08:00:01;9.50;99.90
46217;DHT22;47258;59.424;13.482;2022-11-14T08:02:30;9.50;99.90
46217;DHT22;47258;59.424;13.482;2022-11-14T08:04:58;9.50;99.90
46217;DHT22;47258;59.424;13.482;2022-11-14T08:07:25;9.60;99.90
46217;DHT22;47258;59.424;13.482;2022-11-14T08:09:52;9.60;99.90
46217;DHT22;47258;59.424;13.482;2022-11-14T08:12:19;9.60;99.90
46217;DHT22;47258;59.424;13.482;2022-11-14T08:14:46;9.70;99.90
46217;DHT22;47258;59.424;13.482;2022-11-14T08:17:13;9.70;99.90
46217;DHT22;47258;59.424;13.482;2022-11-14T08:19:40;9.70;99.90
46217;DHT22;47258;59.424;13.482;2022-11-14T08:22:08;9.70;99.90
46217;DHT22;47258;59.424;13.482;2022-11-14T08:24:35;9.70;99.90
46217;DHT22;47258;59.424;13.482;2022-11-14T08:27:02;9.80;99.90
46217;DHT22;47258;59.424;13.482;2022-11-14T08:29:29;9.80;99.90
46217;DHT22;47258;59.424;13.482;2022-11-14T08:31:56;9.80;99.90
46217;DHT22;47258;59.424;13.482;2022-11-14T08:34:24;9.80;99.90
46217;DHT22;47258;59.424;13.482;2022-11-14T08:36:50;9.80;99.90
46217;DHT22;47258;59.424;13.482;2022-11-14T08:39:19;9.80;99.90
46217;DHT22;47258;59.424;13.482;2022-11-14T08:41:46;9.80;99.90
46217;DHT22;47258;59.424;13.482;2022-11-14T08:44:13;9.80;99.90
46217;DHT22;47258;59.424;13.482;2022-11-14T08:46:39;9.80;99.90
46217;DHT22;47258;59.424;13.482;2022-11-14T08:49:06;9.80;99.90
46217;DHT22;47258;59.424;13.482;2022-11-14T08:51:33;9.80;99.90
46217;DHT22;47258;59.424;13.482;2022-11-14T08:54:01;9.80;99.90
46217;DHT22;47258;59.424;13.482;2022-11-14T08:56:29;9.80;99.90
46217;DHT22;47258;59.424;13.482;2022-11-14T08:58:56;9.80;99.90
46217;DHT22;47258;59.424;13.482;2022-11-14T09:01:24;9.80;99.90
46217;DHT22;47258;59.424;13.482;2022-11-14T09:03:51;9.80;99.90
46217;DHT22;47258;59.424;13.482;2022-11-14T09:06:18;9.80;99.90
46217;DHT22;47258;59.424;13.482;2022-11-14T09:08:44;9.80;99.90
46217;DHT22;47258;59.424;13.482;2022-11-14T09:11:11;9.80;99.90
46217;DHT22;47258;59.424;13.482;2022-11-14T09:13:40;9.80;99.90
46217;DHT22;47258;59.424;13.482;2022-11-14T09:16:07;9.90;99.90
46217;DHT22;47258;59.424;13.482;2022-11-14T09:18:34;9.90;99.90
46217;DHT22;47258;59.424;13.482;2022-11-14T09:21:03;9.90;99.90
46217;DHT22;47258;59.424;13.482;2022-11-14T09:23:30;10.00;99.90
46217;DHT22;47258;59.424;13.482;2022-11-14T09:25:57;10.00;99.90
46217;DHT22;47258;59.424;13.482;2022-11-14T09:28:24;10.00;99.90
46217;DHT22;47258;59.424;13.482;2022-11-14T09:30:52;10.10;99.90
46217;DHT22;47258;59.424;13.482;2022-11-14T09:33:19;10.10;99.90
46217;DHT22;47258;59.424;13.482;2022-11-14T09:35:46;10.10;99.90
46217;DHT22;47258;59.424;13.482;2022-11-14T09:38:13;10.10;99.90
46217;DHT22;47258;59.424;13.482;2022-11-14T09:40:50;10.10;99.90
46217;DHT22;47258;59.424;13.482;2022-11-14T09:43:37;10.20;99.90
46217;DHT22;47258;59.424;13.482;2022-11-14T09:46:17;10.20;99.90
46217;DHT22;47258;59.424;13.482;2022-11-14T09:48:45;10.20;99.90
46217;DHT22;47258;59.424;13.482;2022-11-14T09:51:15;10.20;99.90
46217;DHT22;47258;59.424;13.482;2022-11-14T09:53:50;10.30;99.90
46217;DHT22;47258;59.424;13.482;2022-11-14T09:56:21;10.30;99.90
46217;DHT22;47258;59.424;13.482;2022-11-14T09:58:50;10.30;99.90
46217;DHT22;47258;59.424;13.482;2022-11-14T10:01:27;10.30;99.90
46217;DHT22;47258;59.424;13.482;2022-11-14T10:04:02;10.30;99.90
46217;DHT22;47258;59.424;13.482;2022-11-14T10:06:32;10.40;99.90
46217;DHT22;47258;59.424;13.482;2022-11-14T10:09:09;10.40;99.90
46217;DHT22;47258;59.424;13.482;2022-11-14T10:11:46;10.40;99.90
46217;DHT22;47258;59.424;13.482;2022-11-14T10:17:25;10.50;99.90
46217;DHT22;47258;59.424;13.482;2022-11-14T10:20:03;10.50;99.90
46217;DHT22;47258;59.424;13.482;2022-11-14T10:22:48;10.50;99.90
46217;DHT22;47258;59.424;13.482;2022-11-14T10:25:22;10.50;99.90
46217;DHT22;47258;59.424;13.482;2022-11-14T10:28:06;10.50;99.90
46217;DHT22;47258;59.424;13.482;2022-11-14T10:30:39;10.60;99.90
46217;DHT22;47258;59.424;13.482;2022-11-14T10:33:26;10.60;99.90
46217;DHT22;47258;59.424;13.482;2022-11-14T10:35:59;10.70;99.90
46217;DHT22;47258;59.424;13.482;2022-11-14T10:38:32;10.70;99.90
46217;DHT22;47258;59.424;13.482;2022-11-14T10:41:04;10.70;99.90
46217;DHT22;47258;59.424;13.482;2022-11-14T10:43:33;10.70;99.90
46217;DHT22;47258;59.424;13.482;2022-11-14T10:46:05;10.70;99.90
46217;DHT22;47258;59.424;13.482;2022-11-14T10:48:37;10.60;99.90
46217;DHT22;47258;59.424;13.482;2022-11-14T10:51:07;10.60;99.90
46217;DHT22;47258;59.424;13.482;2022-11-14T10:53:47;10.60;99.90
46217;DHT22;47258;59.424;13.482;2022-11-14T10:56:15;10.60;99.90
46217;DHT22;47258;59.424;13.482;2022-11-14T10:58:43;10.70;99.90
46217;DHT22;47258;59.424;13.482;2022-11-14T11:01:33;10.70;99.90
46217;DHT22;47258;59.424;13.482;2022-11-14T11:04:13;10.70;99.90
46217;DHT22;47258;59.424;13.482;2022-11-14T11:06:40;10.60;99.90
46217;DHT22;47258;59.424;13.482;2022-11-14T11:09:11;10.70;99.90
46217;DHT22;47258;59.424;13.482;2022-11-14T11:11:57;10.80;99.90
46217;DHT22;47258;59.424;13.482;2022-11-14T11:14:26;10.80;99.90
46217;DHT22;47258;59.424;13.482;2022-11-14T11:17:07;10.80;99.90
46217;DHT22;47258;59.424;13.482;2022-11-14T11:19:41;10.90;99.90
46217;DHT22;47258;59.424;13.482;2022-11-14T11:22:27;10.90;99.90
46217;DHT22;47258;59.424;13.482;2022-11-14T11:24:55;10.80;99.90
46217;DHT22;47258;59.424;13.482;2022-11-14T11:27:24;10.80;99.90
46217;DHT22;47258;59.424;13.482;2022-11-14T11:30:04;10.80;99.90
46217;DHT22;47258;59.424;13.482;2022-11-14T11:32:31;10.80;99.90
46217;DHT22;47258;59.424;13.482;2022-11-14T11:35:02;10.80;99.90
46217;DHT22;47258;59.424;13.482;2022-11-14T11:37:31;10.70;99.90
46217;DHT22;47258;59.424;13.482;2022-11-14T11:40:02;10.80;99.90
46217;DHT22;47258;59.424;13.482;2022-11-14T11:42:33;10.80;99.90
46217;DHT22;47258;59.424;13.482;2022-11-14T11:45:07;10.80;99.90
46217;DHT22;47258;59.424;13.482;2022-11-14T11:47:40;10.80;99.90
46217;DHT22;47258;59.424;13.482;2022-11-14T11:50:14;10.80;99.90
46217;DHT22;47258;59.424;13.482;2022-11-14T11:52:47;10.80;99.90
46217;DHT22;47258;59.424;13.482;2022-11-14T11:55:17;10.80;99.90
46217;DHT22;47258;59.424;13.482;2022-11-14T11:57:47;10.80;99.90
46217;DHT22;47258;59.424;13.482;2022-11-14T12:00:18;10.80;99.90
46217;DHT22;47258;59.424;13.482;2022-11-14T12:02:47;10.80;99.90
46217;DHT22;47258;59.424;13.482;2022-11-14T12:05:20;10.80;99.90
46217;DHT22;47258;59.424;13.482;2022-11-14T12:07:56;10.80;99.90
46217;DHT22;47258;59.424;13.482;2022-11-14T12:10:26;10.80;99.90
46217;DHT22;47258;59.424;13.482;2022-11-14T12:16:05;10.70;99.90
46217;DHT22;47258;59.424;13.482;2022-11-14T12:19:00;10.80;99.90
46217;DHT22;47258;59.424;13.482;2022-11-14T12:21:49;10.80;99.90
46217;DHT22;47258;59.424;13.482;2022-11-14T12:24:36;10.70;99.90
46217;DHT22;47258;59.424;13.482;2022-11-14T12:27:18;10.70;99.90
46217;DHT22;47258;59.424;13.482;2022-11-14T12:30:06;10.70;99.90
46217;DHT22;47258;59.424;13.482;2022-11-14T12:32:37;10.70;99.90
46217;DHT22;47258;59.424;13.482;2022-11-14T12:35:07;10.70;99.90
46217;DHT22;47258;59.424;13.482;2022-11-14T12:37:44;10.70;99.90
46217;DHT22;47258;59.424;13.482;2022-11-14T12:40:27;10.70;99.90
46217;DHT22;47258;59.424;13.482;2022-11-14T12:42:57;10.70;99.90
46217;DHT22;47258;59.424;13.482;2022-11-14T12:45:55;10.70;99.90
46217;DHT22;47258;59.424;13.482;2022-11-14T12:48:29;10.70;99.90
46217;DHT22;47258;59.424;13.482;2022-11-14T12:50:57;10.70;99.90
46217;DHT22;47258;59.424;13.482;2022-11-14T12:53:40;10.70;99.90
46217;DHT22;47258;59.424;13.482;2022-11-14T13:05:28;10.70;99.90
46217;DHT22;47258;59.424;13.482;2022-11-14T13:08:02;10.70;99.90
46217;DHT22;47258;59.424;13.482;2022-11-14T13:10:38;10.70;99.90
46217;DHT22;47258;59.424;13.482;2022-11-14T13:13:07;10.60;99.90
46217;DHT22;47258;59.424;13.482;2022-11-14T13:15:52;10.70;99.90
46217;DHT22;47258;59.424;13.482;2022-11-14T13:18:50;10.60;99.90
46217;DHT22;47258;59.424;13.482;2022-11-14T13:21:35;10.60;99.90
46217;DHT22;47258;59.424;13.482;2022-11-14T13:24:13;10.60;99.90
46217;DHT22;47258;59.424;13.482;2022-11-14T13:26:49;10.60;99.90
46217;DHT22;47258;59.424;13.482;2022-11-14T13:32:51;10.70;99.90
46217;DHT22;47258;59.424;13.482;2022-11-14T13:35:25;10.70;99.90
46217;DHT22;47258;59.424;13.482;2022-11-14T13:40:52;10.70;99.90
46217;DHT22;47258;59.424;13.482;2022-11-14T13:43:31;10.70;99.90
46217;DHT22;47258;59.424;13.482;2022-11-14T13:46:08;10.70;99.90
46217;DHT22;47258;59.424;13.482;2022-11-14T13:49:05;10.60;99.90
46217;DHT22;47258;59.424;13.482;2022-11-14T13:51:37;10.60;99.90
46217;DHT22;47258;59.424;13.482;2022-11-14T13:54:10;10.50;99.90
46217;DHT22;47258;59.424;13.482;2022-11-14T13:56:43;10.50;99.90
46217;DHT22;47258;59.424;13.482;2022-11-14T13:59:39;10.40;99.90
46217;DHT22;47258;59.424;13.482;2022-11-14T14:02:37;10.50;99.90
46217;DHT22;47258;59.424;13.482;2022-11-14T14:05:16;10.40;99.90
46217;DHT22;47258;59.424;13.482;2022-11-14T14:07:56;10.40;99.90
46217;DHT22;47258;59.424;13.482;2022-11-14T14:10:29;10.40;99.90
46217;DHT22;47258;59.424;13.482;2022-11-14T14:13:09;10.40;99.90
46217;DHT22;47258;59.424;13.482;2022-11-14T14:15:45;10.40;99.90
46217;DHT22;47258;59.424;13.482;2022-11-14T14:18:22;10.40;99.90
46217;DHT22;47258;59.424;13.482;2022-11-14T14:20:57;10.50;99.90
46217;DHT22;47258;59.424;13.482;2022-11-14T14:23:36;10.40;99.90
46217;DHT22;47258;59.424;13.482;2022-11-14T14:26:16;10.40;99.90
46217;DHT22;47258;59.424;13.482;2022-11-14T14:28:53;10.50;99.90
46217;DHT22;47258;59.424;13.482;2022-11-14T14:31:33;10.50;99.90
46217;DHT22;47258;59.424;13.482;2022-11-14T14:34:02;10.50;99.90
46217;DHT22;47258;59.424;13.482;2022-11-14T14:36:29;10.40;99.90
46217;DHT22;47258;59.424;13.482;2022-11-14T14:39:11;10.40;99.90
46217;DHT22;47258;59.424;13.482;2022-11-14T14:41:41;10.50;99.90
46217;DHT22;47258;59.424;13.482;2022-11-14T14:44:17;10.40;99.90
46217;DHT22;47258;59.424;13.482;2022-11-14T14:46:46;10.40;99.90
46217;DHT22;47258;59.424;13.482;2022-11-14T14:49:18;10.40;99.90
46217;DHT22;47258;59.424;13.482;2022-11-14T14:51:45;10.30;99.90
46217;DHT22;47258;59.424;13.482;2022-11-14T14:54:19;10.30;99.90
46217;DHT22;47258;59.424;13.482;2022-11-14T14:56:52;10.30;99.90
46217;DHT22;47258;59.424;13.482;2022-11-14T14:59:22;10.30;99.90
46217;DHT22;47258;59.424;13.482;2022-11-14T15:01:51;10.30;99.90
46217;DHT22;47258;59.424;13.482;2022-11-14T15:04:22;10.30;99.90
46217;DHT22;47258;59.424;13.482;2022-11-14T15:06:50;10.20;99.90
46217;DHT22;47258;59.424;13.482;2022-11-14T15:09:19;10.20;99.90
46217;DHT22;47258;59.424;13.482;2022-11-14T15:11:48;10.20;99.90
46217;DHT22;47258;59.424;13.482;2022-11-14T15:14:17;10.20;99.90
46217;DHT22;47258;59.424;13.482;2022-11-14T15:16:46;10.10;99.90
46217;DHT22;47258;59.424;13.482;2022-11-14T15:19:26;10.10;99.90
46217;DHT22;47258;59.424;13.482;2022-11-14T15:22:01;10.10;99.90
46217;DHT22;47258;59.424;13.482;2022-11-14T15:24:29;10.10;99.90
46217;DHT22;47258;59.424;13.482;2022-11-14T15:26:56;10.10;99.90
46217;DHT22;47258;59.424;13.482;2022-11-14T15:29:25;10.10;99.90
46217;DHT22;47258;59.424;13.482;2022-11-14T15:31:54;10.10;99.90
46217;DHT22;47258;59.424;13.482;2022-11-14T15:34:25;10.10;99.90
46217;DHT22;47258;59.424;13.482;2022-11-14T15:37:07;10.10;99.90
46217;DHT22;47258;59.424;13.482;2022-11-14T15:39:42;10.10;99.90
46217;DHT22;47258;59.424;13.482;2022-11-14T15:42:13;10.00;99.90
46217;DHT22;47258;59.424;13.482;2022-11-14T15:44:40;10.00;99.90
46217;DHT22;47258;59.424;13.482;2022-11-14T15:47:10;10.00;99.90
46217;DHT22;47258;59.424;13.482;2022-11-14T15:49:53;10.00;99.90
46217;DHT22;47258;59.424;13.482;2022-11-14T15:52:24;10.00;99.90
46217;DHT22;47258;59.424;13.482;2022-11-14T15:54:55;10.00;99.90
46217;DHT22;47258;59.424;13.482;2022-11-14T15:57:22;10.00;99.90
46217;DHT22;47258;59.424;13.482;2022-11-14T15:59:48;10.00;99.90
46217;DHT22;47258;59.424;13.482;2022-11-14T16:02:17;10.00;99.90
46217;DHT22;47258;59.424;13.482;2022-11-14T16:04:46;10.00;99.90
46217;DHT22;47258;59.424;13.482;2022-11-14T16:07:15;10.00;99.90